Betagas — V2KA8 — position and weather

sailwx.info

Track history (hours):
 
Tides and Currents Weather Stations Pressure Air Temp Water Temp Dewpoint Dewpoint Depression Visibility Wind Speed Wind Dir Waves Ship Positions

Betagas

Last reported at 2015-Mar-31 06:33 UTC. Time now 2015-Mar-31 15:36 UTC.
Position N 36°35' W 000°35'.

Length 114.6 m; beam 15.7 m; draft 7.4 m.

Type: Tanker. MMSI: 304050636.

Date/timePositionNaut miles runAvg speedWind from/ knotsBaromVisibWave heightAir tempDewpointWater temp
2015-Mar-31 06:33N 36°35' W 000°35'1615.0
2015-Mar-31 05:28N 36°32' W 000°55'1415.4
2015-Mar-31 04:33N 36°29' W 001°12'19615.1
2015-Mar-30 15:33N 36°00' W 005°12'1916.8
2015-Mar-30 14:24N 35°55' W 005°35'10714.9
2015-Mar-30 07:13N 36°10' W 007°46'1014.4
2015-Mar-30 06:30N 36°13' W 007°59'1414.4
2015-Mar-30 05:33N 36°16' W 008°15'1514.3
2015-Mar-30 04:32N 36°20' W 008°33'1414.4
2015-Mar-30 03:33N 36°23' W 008°50'1514.8
2015-Mar-30 02:32N 36°28' W 009°07'1414.5
2015-Mar-30 01:33N 36°33' W 009°24'1715.1
2015-Mar-30 00:27N 36°45' W 009°38'1314.7
2015-Mar-29 23:33N 36°58' W 009°42'1514.5
2015-Mar-29 22:29N 37°13' W 009°46'1414.6
2015-Mar-29 21:32N 37°27' W 009°50'1514.7
2015-Mar-29 20:33N 37°41' W 009°54'1514.9
2015-Mar-29 19:33N 37°56' W 009°58'1515.0
2015-Mar-29 18:32N 38°10' W 010°02'1515.0
2015-Mar-29 17:33N 38°25' W 010°07'1514.9
2015-Mar-29 16:32N 38°40' W 010°11'2215.2
2015-Mar-29 15:04N 39°02' W 010°12'  
2015-Mar-27 08:26N 49°60' W 002°53'6316.3
2015-Mar-27 04:33N 50°17' W 001°18'5613.2
2015-Mar-27 00:18N 50°33' E 000°07'1013.0
2015-Mar-26 23:34N 50°35' E 000°21'1413.8
2015-Mar-26 22:34N 50°41' E 000°41'1515.0
2015-Mar-26 21:34N 50°50' E 001°00'1515.1
2015-Mar-26 20:33N 50°60' E 001°18'1413.8
2015-Mar-26 19:33N 51°08' E 001°35'1212.3
2015-Mar-26 18:33N 51°18' E 001°47'1312.6
2015-Mar-26 17:34N 51°29' E 001°57'1312.8
2015-Mar-26 16:33N 51°39' E 002°11'6613.2
2015-Mar-26 11:33N 52°03' E 003°50'1312.6
2015-Mar-26 10:34N 51°57' E 004°08'3 2.3
2015-Mar-26 09:11N 51°55' E 004°12'0 0.0
2015-Mar-26 08:29N 51°55' E 004°12'0 0.0
2015-Mar-26 07:26N 51°55' E 004°12'0 0.0
2015-Mar-26 06:14N 51°55' E 004°12'0 0.0
2015-Mar-26 05:26N 51°55' E 004°12'0 0.0
2015-Mar-26 04:20N 51°55' E 004°12'0 0.0
2015-Mar-26 02:29N 51°55' E 004°12'0 0.0
2015-Mar-26 01:32N 51°55' E 004°12'0 0.0
2015-Mar-26 00:29N 51°55' E 004°12'0 0.0
2015-Mar-25 23:32N 51°55' E 004°12'0 0.0
2015-Mar-25 22:23N 51°55' E 004°12'0 0.0
2015-Mar-25 21:32N 51°55' E 004°12'0 0.0
2015-Mar-25 20:26N 51°55' E 004°12'0 0.0
2015-Mar-25 19:32N 51°55' E 004°12'0 0.0
2015-Mar-25 18:23N 51°55' E 004°12'0 0.0
2015-Mar-25 17:17N 51°55' E 004°12'0 0.0
2015-Mar-25 16:32N 51°55' E 004°12'0 0.0
2015-Mar-25 15:26N 51°55' E 004°12'2 2.0
2015-Mar-25 14:34N 51°57' E 004°10'1212.0
2015-Mar-25 13:33N 52°00' E 003°51'1212.1
2015-Mar-25 12:33N 51°57' E 003°32'4212.9
2015-Mar-25 09:17N 51°41' E 002°30'1014.0
2015-Mar-25 08:33N 51°33' E 002°19'1414.3
2015-Mar-25 07:33N 51°20' E 002°09'1414.4
2015-Mar-25 06:34N 51°10' E 001°53'1515.3
2015-Mar-25 05:33N 50°59' E 001°35'  
2015-Mar-22 08:15N 39°07' W 009°57'1013.4
2015-Mar-22 07:33N 38°57' W 009°57'1313.4
2015-Mar-22 06:33N 38°44' W 009°57'1413.7
2015-Mar-22 05:34N 38°30' W 009°54'1514.3
2015-Mar-22 04:31N 38°16' W 009°49'1414.1
2015-Mar-22 03:33N 38°03' W 009°45'1414.0
2015-Mar-22 02:33N 37°49' W 009°41'1414.2
2015-Mar-22 01:33N 37°35' W 009°37'1413.6
2015-Mar-22 00:33N 37°22' W 009°33'5212.5
2015-Mar-21 20:22N 36°37' W 008°59'17114.3
2015-Mar-21 08:23N 35°59' W 005°32'911.4
2015-Mar-21 07:33N 36°02' W 005°21'  
Track history (hours):
 
Tides and Currents Weather Stations Pressure Air Temp Water Temp Dewpoint Dewpoint Depression Visibility Wind Speed Wind Dir Waves Ship Positions

Betagas

Last reported at 2015-Mar-31 06:33 UTC. Time now 2015-Mar-31 15:36 UTC.
Position N 36°35' W 000°35'.

Length 114.6 m; beam 15.7 m; draft 7.4 m.

Type: Tanker. MMSI: 304050636.

Date/timePositionNaut miles runAvg speedWind from/ knotsBaromVisibWave heightAir tempDewpointWater temp
2015-Mar-31 06:33N 36°35' W 000°35'1615.0
2015-Mar-31 05:28N 36°32' W 000°55'1415.4
2015-Mar-31 04:33N 36°29' W 001°12'19615.1
2015-Mar-30 15:33N 36°00' W 005°12'1916.8
2015-Mar-30 14:24N 35°55' W 005°35'10714.9
2015-Mar-30 07:13N 36°10' W 007°46'1014.4
2015-Mar-30 06:30N 36°13' W 007°59'1414.4
2015-Mar-30 05:33N 36°16' W 008°15'1514.3
2015-Mar-30 04:32N 36°20' W 008°33'1414.4
2015-Mar-30 03:33N 36°23' W 008°50'1514.8
2015-Mar-30 02:32N 36°28' W 009°07'1414.5
2015-Mar-30 01:33N 36°33' W 009°24'1715.1
2015-Mar-30 00:27N 36°45' W 009°38'1314.7
2015-Mar-29 23:33N 36°58' W 009°42'1514.5
2015-Mar-29 22:29N 37°13' W 009°46'1414.6
2015-Mar-29 21:32N 37°27' W 009°50'1514.7
2015-Mar-29 20:33N 37°41' W 009°54'1514.9
2015-Mar-29 19:33N 37°56' W 009°58'1515.0
2015-Mar-29 18:32N 38°10' W 010°02'1515.0
2015-Mar-29 17:33N 38°25' W 010°07'1514.9
2015-Mar-29 16:32N 38°40' W 010°11'2215.2
2015-Mar-29 15:04N 39°02' W 010°12'  
2015-Mar-27 08:26N 49°60' W 002°53'6316.3
2015-Mar-27 04:33N 50°17' W 001°18'5613.2
2015-Mar-27 00:18N 50°33' E 000°07'1013.0
2015-Mar-26 23:34N 50°35' E 000°21'1413.8
2015-Mar-26 22:34N 50°41' E 000°41'1515.0
2015-Mar-26 21:34N 50°50' E 001°00'1515.1
2015-Mar-26 20:33N 50°60' E 001°18'1413.8
2015-Mar-26 19:33N 51°08' E 001°35'1212.3
2015-Mar-26 18:33N 51°18' E 001°47'1312.6
2015-Mar-26 17:34N 51°29' E 001°57'1312.8
2015-Mar-26 16:33N 51°39' E 002°11'6613.2
2015-Mar-26 11:33N 52°03' E 003°50'1312.6
2015-Mar-26 10:34N 51°57' E 004°08'3 2.3
2015-Mar-26 09:11N 51°55' E 004°12'0 0.0
2015-Mar-26 08:29N 51°55' E 004°12'0 0.0
2015-Mar-26 07:26N 51°55' E 004°12'0 0.0
2015-Mar-26 06:14N 51°55' E 004°12'0 0.0
2015-Mar-26 05:26N 51°55' E 004°12'0 0.0
2015-Mar-26 04:20N 51°55' E 004°12'0 0.0
2015-Mar-26 02:29N 51°55' E 004°12'0 0.0
2015-Mar-26 01:32N 51°55' E 004°12'0 0.0
2015-Mar-26 00:29N 51°55' E 004°12'0 0.0
2015-Mar-25 23:32N 51°55' E 004°12'0 0.0
2015-Mar-25 22:23N 51°55' E 004°12'0 0.0
2015-Mar-25 21:32N 51°55' E 004°12'0 0.0
2015-Mar-25 20:26N 51°55' E 004°12'0 0.0
2015-Mar-25 19:32N 51°55' E 004°12'0 0.0
2015-Mar-25 18:23N 51°55' E 004°12'0 0.0
2015-Mar-25 17:17N 51°55' E 004°12'0 0.0
2015-Mar-25 16:32N 51°55' E 004°12'0 0.0
2015-Mar-25 15:26N 51°55' E 004°12'2 2.0
2015-Mar-25 14:34N 51°57' E 004°10'1212.0
2015-Mar-25 13:33N 52°00' E 003°51'1212.1
2015-Mar-25 12:33N 51°57' E 003°32'4212.9
2015-Mar-25 09:17N 51°41' E 002°30'1014.0
2015-Mar-25 08:33N 51°33' E 002°19'1414.3
2015-Mar-25 07:33N 51°20' E 002°09'1414.4
2015-Mar-25 06:34N 51°10' E 001°53'1515.3
2015-Mar-25 05:33N 50°59' E 001°35'  
2015-Mar-22 08:15N 39°07' W 009°57'1013.4
2015-Mar-22 07:33N 38°57' W 009°57'1313.4
2015-Mar-22 06:33N 38°44' W 009°57'1413.7
2015-Mar-22 05:34N 38°30' W 009°54'1514.3
2015-Mar-22 04:31N 38°16' W 009°49'1414.1
2015-Mar-22 03:33N 38°03' W 009°45'1414.0
2015-Mar-22 02:33N 37°49' W 009°41'1414.2
2015-Mar-22 01:33N 37°35' W 009°37'1413.6
2015-Mar-22 00:33N 37°22' W 009°33'5212.5
2015-Mar-21 20:22N 36°37' W 008°59'17114.3
2015-Mar-21 08:23N 35°59' W 005°32'911.4
2015-Mar-21 07:33N 36°02' W 005°21'  

Dump ship's entire track history